sensor_id;sensor_type;location;lat;lon;timestamp;pressure;altitude;pressure_sealevel;temperature;humidity
13867;BME280;7003;46.982;15.248;2023-11-18T00:00:34;97408.19;;;3.05;100.00
13867;BME280;7003;46.982;15.248;2023-11-18T00:03:03;97398.72;;;3.04;100.00
13867;BME280;7003;46.982;15.248;2023-11-18T00:05:33;97391.44;;;2.91;100.00
13867;BME280;7003;46.982;15.248;2023-11-18T00:08:04;97401.69;;;2.92;100.00
13867;BME280;7003;46.982;15.248;2023-11-18T00:10:31;97396.22;;;2.79;100.00
13867;BME280;7003;46.982;15.248;2023-11-18T00:13:01;97396.25;;;2.68;100.00
13867;BME280;7003;46.982;15.248;2023-11-18T00:15:37;97399.13;;;2.67;100.00
13867;BME280;7003;46.982;15.248;2023-11-18T00:18:10;97402.47;;;2.88;100.00
13867;BME280;7003;46.982;15.248;2023-11-18T00:20:42;97410.16;;;2.69;100.00
13867;BME280;7003;46.982;15.248;2023-11-18T00:23:10;97408.03;;;2.71;100.00
13867;BME280;7003;46.982;15.248;2023-11-18T00:25:41;97419.34;;;2.66;100.00
13867;BME280;7003;46.982;15.248;2023-11-18T00:28:08;97433.59;;;2.40;100.00
13867;BME280;7003;46.982;15.248;2023-11-18T00:30:36;97425.22;;;2.23;100.00
13867;BME280;7003;46.982;15.248;2023-11-18T00:33:03;97419.97;;;2.13;100.00
13867;BME280;7003;46.982;15.248;2023-11-18T00:35:32;97429.69;;;2.22;100.00
13867;BME280;7003;46.982;15.248;2023-11-18T00:38:00;97423.09;;;2.40;100.00
13867;BME280;7003;46.982;15.248;2023-11-18T00:40:30;97430.16;;;2.50;100.00
13867;BME280;7003;46.982;15.248;2023-11-18T00:42:58;97431.78;;;2.15;100.00
13867;BME280;7003;46.982;15.248;2023-11-18T00:45:25;97439.91;;;2.04;100.00
13867;BME280;7003;46.982;15.248;2023-11-18T00:47:55;97423.13;;;2.20;100.00
13867;BME280;7003;46.982;15.248;2023-11-18T00:50:22;97426.22;;;2.52;100.00
13867;BME280;7003;46.982;15.248;2023-11-18T00:52:54;97426.53;;;2.25;100.00
13867;BME280;7003;46.982;15.248;2023-11-18T00:55:21;97424.69;;;2.21;100.00
13867;BME280;7003;46.982;15.248;2023-11-18T00:57:51;97417.34;;;2.18;100.00
13867;BME280;7003;46.982;15.248;2023-11-18T01:00:21;97422.63;;;1.92;100.00
13867;BME280;7003;46.982;15.248;2023-11-18T01:02:50;97429.44;;;1.93;100.00
13867;BME280;7003;46.982;15.248;2023-11-18T01:05:18;97425.75;;;2.05;100.00
13867;BME280;7003;46.982;15.248;2023-11-18T01:07:46;97441.75;;;2.03;100.00
13867;BME280;7003;46.982;15.248;2023-11-18T01:10:15;97435.19;;;2.11;100.00
13867;BME280;7003;46.982;15.248;2023-11-18T01:12:47;97418.94;;;2.14;100.00
13867;BME280;7003;46.982;15.248;2023-11-18T01:15:17;97436.25;;;1.84;100.00
13867;BME280;7003;46.982;15.248;2023-11-18T01:17:45;97438.31;;;1.62;100.00
13867;BME280;7003;46.982;15.248;2023-11-18T01:20:14;97441.47;;;1.74;100.00
13867;BME280;7003;46.982;15.248;2023-11-18T01:22:47;97450.66;;;1.87;100.00
13867;BME280;7003;46.982;15.248;2023-11-18T01:25:17;97437.84;;;2.01;100.00
13867;BME280;7003;46.982;15.248;2023-11-18T01:27:44;97456.72;;;1.98;100.00
13867;BME280;7003;46.982;15.248;2023-11-18T01:30:13;97449.63;;;1.83;100.00
13867;BME280;7003;46.982;15.248;2023-11-18T01:32:41;97450.94;;;1.85;100.00
13867;BME280;7003;46.982;15.248;2023-11-18T01:35:10;97449.09;;;2.06;100.00
13867;BME280;7003;46.982;15.248;2023-11-18T01:37:40;97463.56;;;2.09;100.00
13867;BME280;7003;46.982;15.248;2023-11-18T01:40:08;97457.75;;;1.91;100.00
13867;BME280;7003;46.982;15.248;2023-11-18T01:42:41;97463.75;;;1.62;100.00
13867;BME280;7003;46.982;15.248;2023-11-18T01:45:09;97459.81;;;1.59;100.00
13867;BME280;7003;46.982;15.248;2023-11-18T01:47:38;97457.50;;;1.78;100.00
13867;BME280;7003;46.982;15.248;2023-11-18T01:50:10;97467.69;;;1.54;100.00
13867;BME280;7003;46.982;15.248;2023-11-18T01:52:40;97466.84;;;1.48;100.00
13867;BME280;7003;46.982;15.248;2023-11-18T01:55:08;97478.13;;;1.44;100.00
13867;BME280;7003;46.982;15.248;2023-11-18T01:57:36;97487.00;;;1.33;100.00
13867;BME280;7003;46.982;15.248;2023-11-18T02:00:11;97488.63;;;1.49;100.00
13867;BME280;7003;46.982;15.248;2023-11-18T02:02:41;97485.19;;;1.38;100.00
13867;BME280;7003;46.982;15.248;2023-11-18T02:05:12;97478.47;;;1.78;100.00
13867;BME280;7003;46.982;15.248;2023-11-18T02:07:41;97488.44;;;1.91;100.00
13867;BME280;7003;46.982;15.248;2023-11-18T02:10:09;97489.69;;;1.58;100.00
13867;BME280;7003;46.982;15.248;2023-11-18T02:12:44;97490.47;;;1.64;100.00
13867;BME280;7003;46.982;15.248;2023-11-18T02:15:18;97493.41;;;1.72;100.00
13867;BME280;7003;46.982;15.248;2023-11-18T02:17:49;97489.16;;;1.56;100.00
13867;BME280;7003;46.982;15.248;2023-11-18T02:20:20;97496.50;;;1.59;100.00
13867;BME280;7003;46.982;15.248;2023-11-18T02:22:49;97497.84;;;1.67;100.00
13867;BME280;7003;46.982;15.248;2023-11-18T02:25:18;97493.94;;;1.74;100.00
13867;BME280;7003;46.982;15.248;2023-11-18T02:27:47;97505.50;;;1.83;100.00
13867;BME280;7003;46.982;15.248;2023-11-18T02:30:15;97513.38;;;1.83;100.00
13867;BME280;7003;46.982;15.248;2023-11-18T02:32:46;97514.13;;;1.74;100.00
13867;BME280;7003;46.982;15.248;2023-11-18T02:35:22;97517.97;;;1.46;100.00
13867;BME280;7003;46.982;15.248;2023-11-18T02:37:52;97515.38;;;1.56;100.00
13867;BME280;7003;46.982;15.248;2023-11-18T02:40:27;97507.03;;;1.69;100.00
13867;BME280;7003;46.982;15.248;2023-11-18T02:43:01;97506.00;;;1.75;100.00
13867;BME280;7003;46.982;15.248;2023-11-18T02:45:31;97516.50;;;1.75;100.00
13867;BME280;7003;46.982;15.248;2023-11-18T02:47:59;97523.06;;;1.88;100.00
13867;BME280;7003;46.982;15.248;2023-11-18T02:50:27;97511.25;;;1.75;100.00
13867;BME280;7003;46.982;15.248;2023-11-18T02:52:57;97511.50;;;1.69;100.00
13867;BME280;7003;46.982;15.248;2023-11-18T02:55:27;97507.84;;;1.75;100.00
13867;BME280;7003;46.982;15.248;2023-11-18T02:57:57;97504.38;;;1.64;100.00
13867;BME280;7003;46.982;15.248;2023-11-18T03:00:25;97509.66;;;1.74;100.00
13867;BME280;7003;46.982;15.248;2023-11-18T03:02:54;97507.59;;;1.76;100.00
13867;BME280;7003;46.982;15.248;2023-11-18T03:05:24;97504.69;;;1.88;100.00
13867;BME280;7003;46.982;15.248;2023-11-18T03:07:55;97514.63;;;1.71;100.00
13867;BME280;7003;46.982;15.248;2023-11-18T03:10:23;97513.53;;;1.57;100.00
13867;BME280;7003;46.982;15.248;2023-11-18T03:12:54;97512.53;;;1.73;100.00
13867;BME280;7003;46.982;15.248;2023-11-18T03:15:24;97516.19;;;1.62;100.00
13867;BME280;7003;46.982;15.248;2023-11-18T03:17:53;97514.88;;;1.64;100.00
13867;BME280;7003;46.982;15.248;2023-11-18T03:20:24;97514.34;;;1.57;100.00
13867;BME280;7003;46.982;15.248;2023-11-18T03:22:55;97529.03;;;1.58;100.00
13867;BME280;7003;46.982;15.248;2023-11-18T03:25:23;97524.81;;;1.52;100.00
13867;BME280;7003;46.982;15.248;2023-11-18T03:27:50;97529.75;;;1.43;100.00
13867;BME280;7003;46.982;15.248;2023-11-18T03:30:20;97527.44;;;1.57;100.00
13867;BME280;7003;46.982;15.248;2023-11-18T03:32:50;97528.47;;;1.51;100.00
13867;BME280;7003;46.982;15.248;2023-11-18T03:35:26;97533.19;;;1.49;100.00
13867;BME280;7003;46.982;15.248;2023-11-18T03:37:56;97527.16;;;1.48;100.00
13867;BME280;7003;46.982;15.248;2023-11-18T03:40:24;97526.41;;;1.58;100.00
13867;BME280;7003;46.982;15.248;2023-11-18T03:42:57;97525.91;;;1.61;100.00
13867;BME280;7003;46.982;15.248;2023-11-18T03:45:24;97530.34;;;1.61;100.00
13867;BME280;7003;46.982;15.248;2023-11-18T03:47:56;97528.78;;;1.65;100.00
13867;BME280;7003;46.982;15.248;2023-11-18T03:50:24;97530.59;;;1.64;100.00
13867;BME280;7003;46.982;15.248;2023-11-18T03:52:51;97535.59;;;1.71;100.00
13867;BME280;7003;46.982;15.248;2023-11-18T03:55:18;97540.00;;;1.55;100.00
13867;BME280;7003;46.982;15.248;2023-11-18T03:57:46;97536.19;;;1.15;100.00
13867;BME280;7003;46.982;15.248;2023-11-18T04:00:16;97535.75;;;1.34;100.00
13867;BME280;7003;46.982;15.248;2023-11-18T04:02:43;97540.69;;;1.25;100.00
13867;BME280;7003;46.982;15.248;2023-11-18T04:05:13;97529.66;;;1.18;100.00
13867;BME280;7003;46.982;15.248;2023-11-18T04:07:43;97540.44;;;1.27;100.00
13867;BME280;7003;46.982;15.248;2023-11-18T04:10:10;97533.34;;;1.22;100.00
13867;BME280;7003;46.982;15.248;2023-11-18T04:12:38;97533.00;;;1.08;100.00
13867;BME280;7003;46.982;15.248;2023-11-18T04:15:08;97534.81;;;1.03;100.00
13867;BME280;7003;46.982;15.248;2023-11-18T04:17:37;97525.84;;;0.94;100.00
13867;BME280;7003;46.982;15.248;2023-11-18T04:20:05;97524.84;;;1.00;100.00
13867;BME280;7003;46.982;15.248;2023-11-18T04:22:41;97522.66;;;0.87;100.00
13867;BME280;7003;46.982;15.248;2023-11-18T04:25:11;97530.88;;;1.00;100.00
13867;BME280;7003;46.982;15.248;2023-11-18T04:27:43;97530.00;;;0.85;100.00
13867;BME280;7003;46.982;15.248;2023-11-18T04:30:13;97533.22;;;1.02;100.00
13867;BME280;7003;46.982;15.248;2023-11-18T04:32:43;97530.19;;;0.78;100.00
13867;BME280;7003;46.982;15.248;2023-11-18T04:35:11;97526.84;;;0.83;100.00
13867;BME280;7003;46.982;15.248;2023-11-18T04:37:40;97535.25;;;0.85;100.00
13867;BME280;7003;46.982;15.248;2023-11-18T04:40:11;97530.78;;;0.85;100.00
13867;BME280;7003;46.982;15.248;2023-11-18T04:42:42;97541.59;;;0.99;100.00
13867;BME280;7003;46.982;15.248;2023-11-18T04:45:09;97530.81;;;0.90;100.00
13867;BME280;7003;46.982;15.248;2023-11-18T04:47:37;97546.84;;;0.99;100.00
13867;BME280;7003;46.982;15.248;2023-11-18T04:50:05;97553.91;;;0.98;100.00
13867;BME280;7003;46.982;15.248;2023-11-18T04:52:34;97561.34;;;1.16;100.00
13867;BME280;7003;46.982;15.248;2023-11-18T04:55:04;97553.84;;;0.88;100.00
13867;BME280;7003;46.982;15.248;2023-11-18T04:57:32;97548.34;;;0.85;100.00
13867;BME280;7003;46.982;15.248;2023-11-18T05:00:01;97567.19;;;0.87;100.00
13867;BME280;7003;46.982;15.248;2023-11-18T05:02:39;97566.13;;;0.83;100.00
13867;BME280;7003;46.982;15.248;2023-11-18T05:05:07;97571.59;;;0.81;100.00
13867;BME280;7003;46.982;15.248;2023-11-18T05:07:35;97571.91;;;0.85;100.00
13867;BME280;7003;46.982;15.248;2023-11-18T05:10:08;97552.81;;;0.94;100.00
13867;BME280;7003;46.982;15.248;2023-11-18T05:12:38;97560.09;;;0.82;100.00
13867;BME280;7003;46.982;15.248;2023-11-18T05:15:07;97584.69;;;0.81;100.00
13867;BME280;7003;46.982;15.248;2023-11-18T05:17:37;97581.38;;;0.96;100.00
13867;BME280;7003;46.982;15.248;2023-11-18T05:20:06;97571.44;;;0.93;100.00
13867;BME280;7003;46.982;15.248;2023-11-18T05:22:34;97558.28;;;0.88;100.00
13867;BME280;7003;46.982;15.248;2023-11-18T05:25:07;97559.16;;;0.98;100.00
13867;BME280;7003;46.982;15.248;2023-11-18T05:27:37;97562.94;;;0.75;100.00
13867;BME280;7003;46.982;15.248;2023-11-18T05:30:07;97582.31;;;0.80;100.00
13867;BME280;7003;46.982;15.248;2023-11-18T05:32:35;97578.78;;;0.59;100.00
13867;BME280;7003;46.982;15.248;2023-11-18T05:35:06;97574.69;;;0.73;100.00
13867;BME280;7003;46.982;15.248;2023-11-18T05:37:37;97567.41;;;0.80;100.00
13867;BME280;7003;46.982;15.248;2023-11-18T05:40:11;97570.50;;;0.72;100.00
13867;BME280;7003;46.982;15.248;2023-11-18T05:42:41;97579.94;;;0.73;100.00
13867;BME280;7003;46.982;15.248;2023-11-18T05:45:10;97591.06;;;0.90;100.00
13867;BME280;7003;46.982;15.248;2023-11-18T05:47:43;97586.16;;;0.67;100.00
13867;BME280;7003;46.982;15.248;2023-11-18T05:50:11;97573.09;;;0.67;100.00
13867;BME280;7003;46.982;15.248;2023-11-18T05:52:43;97583.03;;;0.70;100.00
13867;BME280;7003;46.982;15.248;2023-11-18T05:55:15;97591.09;;;0.63;100.00
13867;BME280;7003;46.982;15.248;2023-11-18T05:57:43;97605.66;;;0.81;100.00
13867;BME280;7003;46.982;15.248;2023-11-18T06:00:15;97617.63;;;0.72;100.00
13867;BME280;7003;46.982;15.248;2023-11-18T06:02:49;97611.84;;;0.70;100.00
13867;BME280;7003;46.982;15.248;2023-11-18T06:05:21;97606.56;;;0.65;100.00
13867;BME280;7003;46.982;15.248;2023-11-18T06:07:55;97616.81;;;0.71;100.00
13867;BME280;7003;46.982;15.248;2023-11-18T06:10:26;97629.09;;;0.66;100.00
13867;BME280;7003;46.982;15.248;2023-11-18T06:13:00;97636.47;;;0.69;100.00
13867;BME280;7003;46.982;15.248;2023-11-18T06:15:31;97626.63;;;0.86;100.00
13867;BME280;7003;46.982;15.248;2023-11-18T06:18:00;97625.19;;;0.68;100.00
13867;BME280;7003;46.982;15.248;2023-11-18T06:20:29;97621.28;;;0.71;100.00
13867;BME280;7003;46.982;15.248;2023-11-18T06:22:58;97629.75;;;0.83;100.00
13867;BME280;7003;46.982;15.248;2023-11-18T06:25:28;97652.81;;;0.86;100.00
13867;BME280;7003;46.982;15.248;2023-11-18T06:27:58;97639.66;;;0.76;100.00
13867;BME280;7003;46.982;15.248;2023-11-18T06:30:27;97648.13;;;0.88;100.00
13867;BME280;7003;46.982;15.248;2023-11-18T06:33:00;97651.56;;;0.94;100.00
13867;BME280;7003;46.982;15.248;2023-11-18T06:35:29;97649.91;;;0.83;100.00
13867;BME280;7003;46.982;15.248;2023-11-18T06:38:00;97661.59;;;0.70;100.00
13867;BME280;7003;46.982;15.248;2023-11-18T06:40:31;97666.00;;;0.96;100.00
13867;BME280;7003;46.982;15.248;2023-11-18T06:43:02;97666.44;;;1.20;100.00
13867;BME280;7003;46.982;15.248;2023-11-18T06:45:41;97672.03;;;0.97;100.00
13867;BME280;7003;46.982;15.248;2023-11-18T06:48:10;97672.78;;;0.92;100.00
13867;BME280;7003;46.982;15.248;2023-11-18T06:50:43;97670.34;;;1.17;100.00
13867;BME280;7003;46.982;15.248;2023-11-18T06:53:12;97676.25;;;1.03;100.00
13867;BME280;7003;46.982;15.248;2023-11-18T06:55:44;97685.94;;;1.02;100.00
13867;BME280;7003;46.982;15.248;2023-11-18T06:58:15;97680.34;;;1.21;100.00
13867;BME280;7003;46.982;15.248;2023-11-18T07:00:44;97678.94;;;1.45;100.00
13867;BME280;7003;46.982;15.248;2023-11-18T07:03:15;97682.25;;;1.35;100.00
13867;BME280;7003;46.982;15.248;2023-11-18T07:05:44;97694.44;;;1.57;100.00
13867;BME280;7003;46.982;15.248;2023-11-18T07:08:12;97694.53;;;1.72;100.00
13867;BME280;7003;46.982;15.248;2023-11-18T07:10:45;97703.63;;;1.54;100.00
13867;BME280;7003;46.982;15.248;2023-11-18T07:13:15;97703.25;;;1.40;100.00
13867;BME280;7003;46.982;15.248;2023-11-18T07:15:47;97693.34;;;1.47;100.00
13867;BME280;7003;46.982;15.248;2023-11-18T07:18:15;97696.84;;;1.63;100.00
13867;BME280;7003;46.982;15.248;2023-11-18T07:20:44;97707.78;;;1.50;100.00
13867;BME280;7003;46.982;15.248;2023-11-18T07:23:14;97721.53;;;1.67;100.00
13867;BME280;7003;46.982;15.248;2023-11-18T07:25:46;97735.03;;;1.49;100.00
13867;BME280;7003;46.982;15.248;2023-11-18T07:28:16;97717.13;;;1.36;100.00
13867;BME280;7003;46.982;15.248;2023-11-18T07:30:44;97701.97;;;1.43;100.00
13867;BME280;7003;46.982;15.248;2023-11-18T07:33:13;97708.47;;;1.35;100.00
13867;BME280;7003;46.982;15.248;2023-11-18T07:35:43;97739.47;;;1.43;100.00
13867;BME280;7003;46.982;15.248;2023-11-18T07:38:13;97749.28;;;1.26;100.00
13867;BME280;7003;46.982;15.248;2023-11-18T07:40:49;97725.59;;;1.48;100.00
13867;BME280;7003;46.982;15.248;2023-11-18T07:43:25;97724.72;;;1.74;100.00
13867;BME280;7003;46.982;15.248;2023-11-18T07:45:55;97729.47;;;1.82;100.00
13867;BME280;7003;46.982;15.248;2023-11-18T07:48:24;97724.03;;;1.94;100.00
13867;BME280;7003;46.982;15.248;2023-11-18T07:50:54;97723.84;;;2.11;100.00
13867;BME280;7003;46.982;15.248;2023-11-18T07:53:23;97722.25;;;2.10;100.00
13867;BME280;7003;46.982;15.248;2023-11-18T07:55:58;97739.06;;;2.09;100.00
13867;BME280;7003;46.982;15.248;2023-11-18T07:58:30;97728.31;;;2.10;100.00
13867;BME280;7003;46.982;15.248;2023-11-18T08:00:59;97729.75;;;2.38;100.00
13867;BME280;7003;46.982;15.248;2023-11-18T08:03:28;97718.09;;;2.19;100.00
13867;BME280;7003;46.982;15.248;2023-11-18T08:05:58;97715.72;;;2.17;100.00
13867;BME280;7003;46.982;15.248;2023-11-18T08:08:28;97712.34;;;2.22;100.00
13867;BME280;7003;46.982;15.248;2023-11-18T08:11:00;97722.31;;;2.20;100.00
13867;BME280;7003;46.982;15.248;2023-11-18T08:13:29;97731.16;;;2.04;100.00
13867;BME280;7003;46.982;15.248;2023-11-18T08:15:58;97730.66;;;2.07;100.00
13867;BME280;7003;46.982;15.248;2023-11-18T08:18:27;97723.41;;;2.24;100.00
13867;BME280;7003;46.982;15.248;2023-11-18T08:20:57;97726.63;;;2.46;100.00
13867;BME280;7003;46.982;15.248;2023-11-18T08:23:28;97722.69;;;2.54;100.00
13867;BME280;7003;46.982;15.248;2023-11-18T08:25:59;97727.66;;;2.50;100.00
13867;BME280;7003;46.982;15.248;2023-11-18T08:28:31;97725.06;;;2.55;100.00
13867;BME280;7003;46.982;15.248;2023-11-18T08:30:59;97714.06;;;2.68;100.00
13867;BME280;7003;46.982;15.248;2023-11-18T08:33:28;97707.25;;;2.88;100.00
13867;BME280;7003;46.982;15.248;2023-11-18T08:35:57;97716.72;;;2.84;100.00
13867;BME280;7003;46.982;15.248;2023-11-18T08:38:26;97719.34;;;3.19;100.00
13867;BME280;7003;46.982;15.248;2023-11-18T08:40:56;97719.88;;;3.46;100.00
13867;BME280;7003;46.982;15.248;2023-11-18T08:43:27;97727.19;;;3.65;100.00
13867;BME280;7003;46.982;15.248;2023-11-18T08:45:57;97725.06;;;3.82;100.00
13867;BME280;7003;46.982;15.248;2023-11-18T08:48:25;97722.63;;;4.06;100.00
13867;BME280;7003;46.982;15.248;2023-11-18T08:50:55;97722.53;;;4.31;100.00
13867;BME280;7003;46.982;15.248;2023-11-18T08:53:26;97724.91;;;4.33;100.00
13867;BME280;7003;46.982;15.248;2023-11-18T08:55:55;97732.53;;;4.39;100.00
13867;BME280;7003;46.982;15.248;2023-11-18T08:58:27;97722.13;;;4.63;100.00
13867;BME280;7003;46.982;15.248;2023-11-18T09:01:00;97734.03;;;4.99;100.00
13867;BME280;7003;46.982;15.248;2023-11-18T09:03:40;97744.19;;;5.16;100.00
13867;BME280;7003;46.982;15.248;2023-11-18T09:06:15;97750.84;;;4.64;100.00
13867;BME280;7003;46.982;15.248;2023-11-18T09:08:53;97743.75;;;4.60;100.00
13867;BME280;7003;46.982;15.248;2023-11-18T09:11:24;97740.94;;;4.90;100.00
13867;BME280;7003;46.982;15.248;2023-11-18T09:14:00;97739.88;;;4.91;100.00
13867;BME280;7003;46.982;15.248;2023-11-18T09:16:30;97729.94;;;4.78;100.00
13867;BME280;7003;46.982;15.248;2023-11-18T09:19:07;97736.53;;;4.76;100.00
13867;BME280;7003;46.982;15.248;2023-11-18T09:21:38;97735.13;;;4.88;100.00
13867;BME280;7003;46.982;15.248;2023-11-18T09:24:09;97736.19;;;4.92;100.00
13867;BME280;7003;46.982;15.248;2023-11-18T09:26:40;97739.53;;;5.03;100.00
13867;BME280;7003;46.982;15.248;2023-11-18T09:29:12;97739.25;;;5.04;100.00
13867;BME280;7003;46.982;15.248;2023-11-18T09:31:47;97743.09;;;4.83;100.00
13867;BME280;7003;46.982;15.248;2023-11-18T09:34:18;97741.56;;;5.45;100.00
13867;BME280;7003;46.982;15.248;2023-11-18T09:36:55;97731.94;;;5.64;100.00
13867;BME280;7003;46.982;15.248;2023-11-18T09:39:22;97743.47;;;5.68;100.00
13867;BME280;7003;46.982;15.248;2023-11-18T09:42:05;97752.56;;;5.57;100.00
13867;BME280;7003;46.982;15.248;2023-11-18T09:44:38;97753.03;;;5.64;100.00
13867;BME280;7003;46.982;15.248;2023-11-18T09:47:08;97749.00;;;5.72;100.00
13867;BME280;7003;46.982;15.248;2023-11-18T09:49:41;97744.53;;;5.67;100.00
13867;BME280;7003;46.982;15.248;2023-11-18T09:52:16;97751.34;;;5.73;100.00
13867;BME280;7003;46.982;15.248;2023-11-18T09:55:02;97761.75;;;5.94;100.00
13867;BME280;7003;46.982;15.248;2023-11-18T09:57:38;97757.72;;;6.01;100.00
13867;BME280;7003;46.982;15.248;2023-11-18T10:00:12;97763.78;;;6.02;100.00
13867;BME280;7003;46.982;15.248;2023-11-18T10:02:53;97754.19;;;6.11;100.00
13867;BME280;7003;46.982;15.248;2023-11-18T10:05:27;97755.06;;;6.01;100.00
13867;BME280;7003;46.982;15.248;2023-11-18T10:08:03;97763.34;;;5.95;100.00
13867;BME280;7003;46.982;15.248;2023-11-18T10:10:35;97762.66;;;5.79;100.00
13867;BME280;7003;46.982;15.248;2023-11-18T10:13:04;97752.03;;;5.84;100.00
13867;BME280;7003;46.982;15.248;2023-11-18T10:15:51;97757.53;;;5.93;100.00
13867;BME280;7003;46.982;15.248;2023-11-18T10:18:21;97764.97;;;5.86;100.00
13867;BME280;7003;46.982;15.248;2023-11-18T10:20:51;97755.28;;;5.76;100.00
13867;BME280;7003;46.982;15.248;2023-11-18T10:23:23;97756.22;;;5.61;100.00
13867;BME280;7003;46.982;15.248;2023-11-18T10:25:58;97751.91;;;5.70;100.00
13867;BME280;7003;46.982;15.248;2023-11-18T10:28:31;97752.31;;;5.82;100.00
13867;BME280;7003;46.982;15.248;2023-11-18T10:31:02;97755.41;;;5.95;100.00
13867;BME280;7003;46.982;15.248;2023-11-18T10:33:33;97740.69;;;6.12;100.00
13867;BME280;7003;46.982;15.248;2023-11-18T10:36:04;97750.00;;;6.05;100.00
13867;BME280;7003;46.982;15.248;2023-11-18T10:38:42;97739.97;;;6.07;100.00
13867;BME280;7003;46.982;15.248;2023-11-18T10:41:17;97740.22;;;6.05;100.00
13867;BME280;7003;46.982;15.248;2023-11-18T10:43:49;97736.50;;;6.11;100.00
13867;BME280;7003;46.982;15.248;2023-11-18T10:46:34;97729.72;;;6.00;100.00
13867;BME280;7003;46.982;15.248;2023-11-18T10:49:05;97718.00;;;5.82;100.00
13867;BME280;7003;46.982;15.248;2023-11-18T10:51:38;97719.81;;;5.58;100.00
13867;BME280;7003;46.982;15.248;2023-11-18T10:54:08;97713.09;;;5.42;100.00
13867;BME280;7003;46.982;15.248;2023-11-18T10:56:47;97705.75;;;5.39;100.00
13867;BME280;7003;46.982;15.248;2023-11-18T10:59:16;97706.06;;;5.61;100.00
13867;BME280;7003;46.982;15.248;2023-11-18T11:01:46;97702.47;;;5.52;100.00
13867;BME280;7003;46.982;15.248;2023-11-18T11:04:16;97711.91;;;5.58;100.00
13867;BME280;7003;46.982;15.248;2023-11-18T11:06:47;97717.94;;;5.64;100.00
13867;BME280;7003;46.982;15.248;2023-11-18T11:09:20;97727.72;;;5.58;100.00
13867;BME280;7003;46.982;15.248;2023-11-18T11:11:57;97723.06;;;5.50;100.00
13867;BME280;7003;46.982;15.248;2023-11-18T11:14:33;97715.47;;;5.43;100.00
13867;BME280;7003;46.982;15.248;2023-11-18T11:17:08;97713.03;;;5.52;100.00
13867;BME280;7003;46.982;15.248;2023-11-18T11:19:52;97715.06;;;5.60;100.00
13867;BME280;7003;46.982;15.248;2023-11-18T11:22:28;97721.66;;;5.87;100.00
13867;BME280;7003;46.982;15.248;2023-11-18T11:25:16;97725.66;;;5.84;100.00
13867;BME280;7003;46.982;15.248;2023-11-18T11:27:57;97737.84;;;5.80;100.00
13867;BME280;7003;46.982;15.248;2023-11-18T11:30:29;97735.03;;;5.66;100.00
13867;BME280;7003;46.982;15.248;2023-11-18T11:33:20;97739.41;;;5.52;100.00
13867;BME280;7003;46.982;15.248;2023-11-18T11:35:56;97733.38;;;5.75;100.00
13867;BME280;7003;46.982;15.248;2023-11-18T11:38:25;97733.03;;;5.87;100.00
13867;BME280;7003;46.982;15.248;2023-11-18T11:40:56;97726.06;;;5.67;100.00
13867;BME280;7003;46.982;15.248;2023-11-18T11:43:35;97708.78;;;5.56;100.00
13867;BME280;7003;46.982;15.248;2023-11-18T11:46:10;97719.41;;;5.75;100.00
13867;BME280;7003;46.982;15.248;2023-11-18T11:48:41;97733.13;;;5.48;100.00
13867;BME280;7003;46.982;15.248;2023-11-18T11:51:19;97727.09;;;5.71;100.00
13867;BME280;7003;46.982;15.248;2023-11-18T11:53:52;97725.72;;;5.79;100.00
13867;BME280;7003;46.982;15.248;2023-11-18T11:56:38;97722.63;;;5.72;100.00
13867;BME280;7003;46.982;15.248;2023-11-18T11:59:07;97734.72;;;5.73;100.00
13867;BME280;7003;46.982;15.248;2023-11-18T12:01:38;97737.47;;;5.92;100.00
13867;BME280;7003;46.982;15.248;2023-11-18T12:04:17;97736.16;;;5.89;100.00
13867;BME280;7003;46.982;15.248;2023-11-18T12:06:53;97727.72;;;5.58;100.00
13867;BME280;7003;46.982;15.248;2023-11-18T12:09:30;97731.81;;;5.74;100.00
13867;BME280;7003;46.982;15.248;2023-11-18T12:12:04;97725.75;;;6.03;100.00
13867;BME280;7003;46.982;15.248;2023-11-18T12:14:56;97736.94;;;5.95;100.00
13867;BME280;7003;46.982;15.248;2023-11-18T12:20:42;97729.50;;;5.97;100.00
13867;BME280;7003;46.982;15.248;2023-11-18T12:23:16;97734.72;;;6.49;100.00
13867;BME280;7003;46.982;15.248;2023-11-18T12:25:47;97741.25;;;6.94;100.00
13867;BME280;7003;46.982;15.248;2023-11-18T12:28:25;97736.28;;;7.25;100.00
13867;BME280;7003;46.982;15.248;2023-11-18T12:30:57;97732.34;;;7.23;100.00
13867;BME280;7003;46.982;15.248;2023-11-18T12:34:01;97735.13;;;7.13;100.00
13867;BME280;7003;46.982;15.248;2023-11-18T12:37:02;97744.44;;;6.73;100.00
13867;BME280;7003;46.982;15.248;2023-11-18T12:40:12;97727.84;;;6.48;100.00
13867;BME280;7003;46.982;15.248;2023-11-18T12:43:00;97736.66;;;6.63;100.00
13867;BME280;7003;46.982;15.248;2023-11-18T12:48:31;97729.94;;;8.82;100.00
13867;BME280;7003;46.982;15.248;2023-11-18T12:51:00;97730.47;;;8.93;100.00
13867;BME280;7003;46.982;15.248;2023-11-18T12:53:31;97729.16;;;9.04;86.24
13867;BME280;7003;46.982;15.248;2023-11-18T12:56:05;97737.00;;;9.53;81.86
13867;BME280;7003;46.982;15.248;2023-11-18T12:58:34;97736.38;;;9.79;100.00
13867;BME280;7003;46.982;15.248;2023-11-18T13:01:05;97730.66;;;9.94;100.00
13867;BME280;7003;46.982;15.248;2023-11-18T13:03:35;97723.56;;;10.12;73.33
13867;BME280;7003;46.982;15.248;2023-11-18T13:06:04;97737.34;;;9.83;72.21
13867;BME280;7003;46.982;15.248;2023-11-18T13:08:36;97731.44;;;10.25;70.78
13867;BME280;7003;46.982;15.248;2023-11-18T13:11:06;97744.09;;;10.20;80.96
13867;BME280;7003;46.982;15.248;2023-11-18T13:13:42;97737.34;;;9.60;64.99
13867;BME280;7003;46.982;15.248;2023-11-18T13:16:14;97737.00;;;9.84;69.61
13867;BME280;7003;46.982;15.248;2023-11-18T13:18:47;97738.47;;;9.59;72.30
13867;BME280;7003;46.982;15.248;2023-11-18T13:21:18;97752.09;;;9.22;70.11
13867;BME280;7003;46.982;15.248;2023-11-18T13:23:53;97757.28;;;9.05;75.48
13867;BME280;7003;46.982;15.248;2023-11-18T13:26:22;97746.97;;;9.25;73.49
13867;BME280;7003;46.982;15.248;2023-11-18T13:28:53;97758.84;;;9.06;68.59